createdAt,value
2022-12-16T00:00:48.958Z,86.13
2022-12-16T00:03:17.600Z,95.20
2022-12-16T00:05:45.213Z,90.88
2022-12-16T00:08:12.889Z,101.38
2022-12-16T00:10:54.977Z,99.53
2022-12-16T00:13:22.711Z,89.28
2022-12-16T00:15:52.639Z,89.38
2022-12-16T00:18:22.178Z,92.40
2022-12-16T00:20:52.442Z,92.45
2022-12-16T00:23:22.624Z,92.63
2022-12-16T00:25:51.039Z,82.65
2022-12-16T00:28:22.555Z,88.57
2022-12-16T00:30:55.929Z,88.57
2022-12-16T00:33:25.059Z,89.60
2022-12-16T00:35:54.182Z,100.75
2022-12-16T00:38:23.113Z,101.13
2022-12-16T00:40:52.100Z,92.25
2022-12-16T00:43:20.403Z,93.40
2022-12-16T00:45:48.847Z,101.75
2022-12-16T00:48:23.425Z,105.07
2022-12-16T00:50:51.897Z,98.38
2022-12-16T00:53:19.722Z,106.72
2022-12-16T00:55:47.751Z,98.40
2022-12-16T00:58:15.984Z,105.90
2022-12-16T01:00:43.943Z,101.72
2022-12-16T01:03:14.385Z,106.63
2022-12-16T01:05:47.600Z,100.38
2022-12-16T01:08:15.886Z,95.88
2022-12-16T01:10:43.628Z,97.55
2022-12-16T01:13:11.310Z,95.00
2022-12-16T01:15:38.798Z,88.70
2022-12-16T01:18:06.542Z,92.07
2022-12-16T01:20:34.351Z,91.82
2022-12-16T01:23:06.662Z,92.28
2022-12-16T01:25:35.178Z,88.15
2022-12-16T01:28:04.092Z,92.13
2022-12-16T01:30:32.221Z,82.78
2022-12-16T01:32:59.956Z,84.65
2022-12-16T01:35:52.607Z,77.32
2022-12-16T01:38:18.356Z,81.00
2022-12-16T01:40:46.145Z,81.38
2022-12-16T01:43:14.776Z,78.38
2022-12-16T01:45:43.713Z,86.45
2022-12-16T01:48:20.418Z,77.57
2022-12-16T01:50:49.792Z,79.53
2022-12-16T01:53:18.830Z,82.28
2022-12-16T01:55:50.133Z,81.57
2022-12-16T01:58:22.335Z,77.38
2022-12-16T02:00:50.257Z,83.70
2022-12-16T02:03:19.379Z,76.22
2022-12-16T02:05:47.706Z,83.60
2022-12-16T02:08:18.529Z,77.75
2022-12-16T02:11:01.688Z,79.70
2022-12-16T02:13:35.442Z,68.75
2022-12-16T02:16:11.679Z,78.45
2022-12-16T02:18:46.547Z,80.32
2022-12-16T02:21:39.928Z,72.40
2022-12-16T02:24:31.115Z,76.33
2022-12-16T02:27:28.160Z,83.97
2022-12-16T02:30:06.860Z,78.25
2022-12-16T02:32:48.824Z,78.43
2022-12-16T02:35:24.053Z,74.82
2022-12-16T02:37:58.039Z,80.55
2022-12-16T02:40:29.945Z,78.77
2022-12-16T02:43:01.919Z,75.82
2022-12-16T02:45:31.220Z,85.97
2022-12-16T02:48:00.112Z,82.35
2022-12-16T02:50:30.759Z,78.35
2022-12-16T02:53:00.678Z,70.97
2022-12-16T02:55:34.120Z,70.70
2022-12-16T02:58:12.446Z,73.72
2022-12-16T03:00:44.802Z,68.47
2022-12-16T03:03:23.316Z,77.03
2022-12-16T03:05:52.578Z,77.75
2022-12-16T03:08:23.405Z,75.00
2022-12-16T03:10:53.481Z,74.07
2022-12-16T03:13:24.064Z,74.85
2022-12-16T03:15:54.454Z,74.75
2022-12-16T03:18:26.101Z,73.82
2022-12-16T03:20:56.589Z,72.30
2022-12-16T03:23:27.901Z,68.97
2022-12-16T03:26:01.139Z,71.32
2022-12-16T03:28:41.521Z,71.63
2022-12-16T03:31:14.746Z,74.63
2022-12-16T03:33:49.327Z,83.07
2022-12-16T03:36:21.206Z,78.32
2022-12-16T03:38:49.193Z,75.18
2022-12-16T03:41:17.459Z,72.65
2022-12-16T03:43:45.064Z,78.00
2022-12-16T03:46:13.240Z,74.30
2022-12-16T03:48:48.421Z,76.95
2022-12-16T03:51:16.433Z,76.90
2022-12-16T03:53:44.337Z,79.72
2022-12-16T03:56:12.703Z,77.75
2022-12-16T03:58:41.078Z,77.68
2022-12-16T04:01:10.384Z,75.18
2022-12-16T04:03:38.687Z,73.30
2022-12-16T04:06:08.914Z,75.80
2022-12-16T04:08:36.418Z,77.15
2022-12-16T04:11:21.794Z,79.10
2022-12-16T04:14:07.308Z,80.65
2022-12-16T04:16:52.904Z,69.88
2022-12-16T04:19:42.086Z,78.85
2022-12-16T04:22:32.443Z,71.43
2022-12-16T04:25:03.009Z,74.93
2022-12-16T04:27:31.715Z,77.20
2022-12-16T04:30:16.990Z,72.82
2022-12-16T04:33:02.573Z,90.68
2022-12-16T04:35:47.534Z,78.28
2022-12-16T04:38:34.065Z,79.22
2022-12-16T04:41:19.044Z,82.82
2022-12-16T04:44:05.252Z,81.32
2022-12-16T04:46:50.990Z,85.55
2022-12-16T04:49:36.978Z,90.43
2022-12-16T04:52:22.772Z,80.93
2022-12-16T04:55:09.266Z,78.18
2022-12-16T04:57:54.594Z,94.78
2022-12-16T05:00:40.005Z,76.57
2022-12-16T05:03:26.340Z,74.13
2022-12-16T05:06:11.777Z,78.28
2022-12-16T05:09:00.169Z,92.53
2022-12-16T05:11:46.860Z,84.63
2022-12-16T05:14:32.581Z,77.25
2022-12-16T05:17:17.942Z,78.67
2022-12-16T05:20:03.175Z,76.60
2022-12-16T05:22:48.535Z,80.15
2022-12-16T05:25:33.827Z,81.22
2022-12-16T05:28:20.488Z,78.28
2022-12-16T05:31:05.476Z,74.75
2022-12-16T05:33:50.940Z,90.03
2022-12-16T05:36:36.075Z,74.57
2022-12-16T05:39:21.454Z,85.10
2022-12-16T05:42:06.540Z,89.30
2022-12-16T05:44:52.927Z,84.28
2022-12-16T05:47:38.092Z,75.82
2022-12-16T05:50:24.543Z,85.72
2022-12-16T05:53:24.814Z,91.10
2022-12-16T05:56:15.716Z,84.38
2022-12-16T05:59:01.112Z,89.28
2022-12-16T06:01:48.134Z,80.38
2022-12-16T06:04:35.705Z,86.35
2022-12-16T06:07:21.635Z,85.05
2022-12-16T06:10:06.815Z,93.03
2022-12-16T06:12:52.383Z,86.38
2022-12-16T06:15:37.439Z,88.20
2022-12-16T06:18:25.276Z,95.47
2022-12-16T06:21:10.908Z,85.15
2022-12-16T06:23:55.862Z,79.82
2022-12-16T06:26:41.361Z,84.95
2022-12-16T06:29:27.718Z,88.63
2022-12-16T06:32:13.571Z,85.32
2022-12-16T06:35:00.154Z,77.03
2022-12-16T06:37:45.453Z,85.93
2022-12-16T06:40:30.746Z,90.88
2022-12-16T06:43:16.516Z,84.70
2022-12-16T06:46:01.511Z,96.40
2022-12-16T06:48:52.352Z,87.25
2022-12-16T06:51:39.030Z,92.45
2022-12-16T06:54:24.152Z,83.95
2022-12-16T06:57:09.314Z,93.88
2022-12-16T06:59:55.686Z,87.80
2022-12-16T07:02:41.360Z,80.43
2022-12-16T07:05:28.393Z,84.43
2022-12-16T07:08:18.412Z,84.10
2022-12-16T07:11:16.117Z,83.30
2022-12-16T07:14:02.472Z,102.30
2022-12-16T07:16:47.962Z,121.07
2022-12-16T07:19:33.339Z,145.95
2022-12-16T07:22:20.062Z,138.27
2022-12-16T07:25:06.080Z,133.07
2022-12-16T07:27:51.666Z,148.00
2022-12-16T07:30:37.452Z,130.73
2022-12-16T07:33:22.842Z,134.55
2022-12-16T07:36:09.042Z,132.63
2022-12-16T07:38:54.754Z,117.30
2022-12-16T07:41:41.481Z,133.52
2022-12-16T07:44:26.950Z,134.15
2022-12-16T07:47:12.138Z,124.72
2022-12-16T07:49:57.534Z,111.25
2022-12-16T07:52:43.248Z,105.82
2022-12-16T07:55:29.795Z,104.75
2022-12-16T07:58:16.811Z,114.77
2022-12-16T08:01:07.669Z,108.32
2022-12-16T08:03:54.224Z,93.53
2022-12-16T08:06:40.549Z,93.85
2022-12-16T08:09:25.685Z,81.13
2022-12-16T08:12:11.635Z,90.05
2022-12-16T08:14:58.665Z,92.55
2022-12-16T08:17:43.799Z,96.30
2022-12-16T08:20:29.484Z,83.10
2022-12-16T08:23:14.621Z,79.82
2022-12-16T08:26:00.390Z,74.47
2022-12-16T08:28:45.803Z,75.68
2022-12-16T08:31:33.289Z,80.07
2022-12-16T08:34:27.333Z,77.45
2022-12-16T08:37:12.866Z,77.35
2022-12-16T08:40:25.750Z,78.65
2022-12-16T08:43:07.857Z,78.07
2022-12-16T08:45:57.053Z,84.60
2022-12-16T08:48:43.650Z,77.00
2022-12-16T08:51:29.479Z,81.85
2022-12-16T08:54:15.582Z,87.53
2022-12-16T08:57:01.268Z,84.45
2022-12-16T08:59:47.446Z,89.57
2022-12-16T09:02:33.142Z,79.35
2022-12-16T09:05:19.891Z,88.03
2022-12-16T09:08:05.783Z,85.35
2022-12-16T09:10:50.926Z,82.43
2022-12-16T09:13:36.720Z,77.10
2022-12-16T09:16:22.177Z,87.28
2022-12-16T09:19:07.694Z,79.32
2022-12-16T09:21:59.290Z,78.88
2022-12-16T09:24:44.700Z,85.93
2022-12-16T09:27:30.387Z,84.03
2022-12-16T09:30:15.886Z,74.30
2022-12-16T09:33:02.267Z,79.75
2022-12-16T09:35:49.115Z,72.50
2022-12-16T09:38:35.633Z,71.82
2022-12-16T09:41:43.014Z,73.45
2022-12-16T09:44:47.275Z,78.88
2022-12-16T09:47:38.839Z,94.70
2022-12-16T09:50:24.767Z,76.78
2022-12-16T09:53:26.266Z,79.57
2022-12-16T09:56:12.994Z,75.57
2022-12-16T09:59:02.323Z,77.87
2022-12-16T10:01:49.265Z,78.32
2022-12-16T10:04:35.817Z,77.00
2022-12-16T10:07:21.490Z,81.03
2022-12-16T10:10:16.596Z,87.30
2022-12-16T10:13:08.432Z,79.47
2022-12-16T10:16:00.050Z,85.78
2022-12-16T10:18:57.933Z,77.28
2022-12-16T10:21:46.950Z,79.50
2022-12-16T10:24:39.513Z,80.32
2022-12-16T10:27:30.273Z,77.03
2022-12-16T10:30:17.170Z,83.65
2022-12-16T10:33:05.363Z,90.53
2022-12-16T10:35:55.649Z,84.65
2022-12-16T10:38:44.072Z,90.47
2022-12-16T10:41:30.677Z,84.88
2022-12-16T10:44:16.169Z,88.95
2022-12-16T10:47:02.732Z,87.22
2022-12-16T10:49:53.650Z,89.67
2022-12-16T10:52:41.621Z,95.47
2022-12-16T10:55:38.683Z,85.70
2022-12-16T10:58:35.863Z,89.22
2022-12-16T11:01:40.086Z,81.80
2022-12-16T11:04:47.785Z,87.57
2022-12-16T11:07:45.459Z,81.25
2022-12-16T11:10:52.047Z,83.82
2022-12-16T11:13:41.842Z,83.72
2022-12-16T11:16:33.447Z,82.03
2022-12-16T11:19:19.259Z,89.03
2022-12-16T11:22:05.953Z,81.55
2022-12-16T11:24:51.311Z,81.22
2022-12-16T11:27:42.156Z,84.28
2022-12-16T11:30:39.252Z,85.25
2022-12-16T11:33:31.213Z,78.53
2022-12-16T11:36:24.693Z,80.35
2022-12-16T11:39:11.875Z,81.70
2022-12-16T11:42:13.270Z,86.80
2022-12-16T11:45:01.800Z,75.53
2022-12-16T11:47:54.218Z,79.28
2022-12-16T11:50:41.976Z,81.30
2022-12-16T11:53:41.197Z,83.17
2022-12-16T11:56:31.393Z,81.40
2022-12-16T11:59:20.619Z,82.53
2022-12-16T12:02:10.459Z,77.32
2022-12-16T12:04:55.779Z,80.75
2022-12-16T12:07:48.924Z,73.63
2022-12-16T12:10:47.421Z,70.90
2022-12-16T12:13:46.907Z,80.40
2022-12-16T12:16:47.759Z,76.10
2022-12-16T12:19:42.219Z,82.28
2022-12-16T12:22:31.679Z,77.03
2022-12-16T12:25:21.101Z,76.10
2022-12-16T12:28:15.013Z,74.47
2022-12-16T12:31:05.951Z,78.27
2022-12-16T12:34:10.058Z,79.82
2022-12-16T12:36:57.698Z,75.30
2022-12-16T12:39:48.107Z,72.35
2022-12-16T12:42:48.760Z,79.05
2022-12-16T12:45:46.833Z,70.25
2022-12-16T12:48:37.705Z,76.82
2022-12-16T12:51:27.206Z,70.28
2022-12-16T12:54:17.427Z,68.23
2022-12-16T12:57:06.575Z,68.37
2022-12-16T13:00:02.848Z,68.50
2022-12-16T13:02:58.125Z,66.85
2022-12-16T13:05:47.571Z,64.72
2022-12-16T13:08:57.101Z,68.13
2022-12-16T13:11:42.812Z,60.25
2022-12-16T13:15:03.126Z,59.17
2022-12-16T13:17:48.451Z,54.17
2022-12-16T13:20:55.508Z,59.00
2022-12-16T13:23:47.906Z,53.15
2022-12-16T13:26:34.927Z,54.13
2022-12-16T13:29:26.830Z,60.78
2022-12-16T13:32:19.072Z,48.58
2022-12-16T13:35:04.196Z,48.67
2022-12-16T13:37:51.300Z,52.22
2022-12-16T13:40:39.211Z,48.00
2022-12-16T13:43:24.716Z,46.13
2022-12-16T13:46:47.416Z,43.13
2022-12-16T13:49:59.801Z,34.13
2022-12-16T13:52:56.434Z,44.50
2022-12-16T13:55:46.897Z,42.55
2022-12-16T13:58:39.293Z,43.38
2022-12-16T14:01:29.389Z,46.67
2022-12-16T14:04:23.484Z,39.30
2022-12-16T14:07:12.264Z,35.40
2022-12-16T14:10:06.006Z,31.52
2022-12-16T14:13:07.782Z,34.90
2022-12-16T14:16:06.021Z,42.78
2022-12-16T14:19:03.142Z,39.22
2022-12-16T14:21:56.324Z,43.95
2022-12-16T14:24:47.723Z,43.47
2022-12-16T14:27:41.332Z,46.60
2022-12-16T14:30:35.869Z,52.72
2022-12-16T14:33:41.127Z,48.75
2022-12-16T14:36:41.034Z,54.95
2022-12-16T14:39:31.425Z,55.25
2022-12-16T14:42:16.935Z,54.28
2022-12-16T14:45:06.141Z,47.87
2022-12-16T14:47:51.708Z,47.73
2022-12-16T14:50:40.177Z,46.83
2022-12-16T14:53:32.587Z,47.92
2022-12-16T14:56:35.466Z,50.58
2022-12-16T14:59:36.099Z,53.78
2022-12-16T15:02:32.923Z,55.45
2022-12-16T15:05:19.017Z,59.40
2022-12-16T15:08:04.447Z,47.30
2022-12-16T15:10:50.237Z,52.13
2022-12-16T15:14:19.399Z,50.28
2022-12-16T15:17:06.544Z,47.47
2022-12-16T15:20:03.157Z,48.13
2022-12-16T15:22:48.565Z,49.95
2022-12-16T15:25:41.043Z,56.17
2022-12-16T15:28:53.415Z,58.17
2022-12-16T15:31:42.734Z,57.40
2022-12-16T15:34:55.956Z,60.08
2022-12-16T15:37:44.143Z,69.85
2022-12-16T15:40:44.502Z,61.60
2022-12-16T15:43:40.903Z,65.10
2022-12-16T15:46:35.150Z,72.43
2022-12-16T15:49:20.514Z,63.90
2022-12-16T15:52:08.720Z,69.63
2022-12-16T15:55:05.299Z,70.10
2022-12-16T15:57:52.194Z,69.82
2022-12-16T16:00:41.276Z,71.57
2022-12-16T16:03:37.247Z,64.18
2022-12-16T16:06:23.293Z,70.27
2022-12-16T16:09:13.076Z,74.32
2022-12-16T16:11:54.589Z,76.33
2022-12-16T16:14:40.485Z,77.22
2022-12-16T16:17:34.899Z,74.07
2022-12-16T16:20:20.659Z,77.82
2022-12-16T16:23:05.845Z,68.13
2022-12-16T16:25:57.996Z,75.55
2022-12-16T16:28:45.967Z,79.75
2022-12-16T16:31:31.575Z,73.63
2022-12-16T16:34:16.493Z,72.25
2022-12-16T16:37:01.802Z,75.38
2022-12-16T16:39:58.404Z,80.63
2022-12-16T16:42:45.292Z,88.45
2022-12-16T16:45:30.485Z,80.60
2022-12-16T16:48:23.271Z,91.10
2022-12-16T16:51:08.708Z,93.60
2022-12-16T16:53:54.350Z,90.83
2022-12-16T16:56:40.483Z,93.20
2022-12-16T16:59:28.114Z,92.25
2022-12-16T17:02:13.489Z,100.88
2022-12-16T17:04:58.477Z,89.32
2022-12-16T17:07:43.963Z,90.63
2022-12-16T17:10:29.974Z,97.00
2022-12-16T17:13:15.024Z,95.13
2022-12-16T17:16:03.564Z,87.43
2022-12-16T17:18:52.338Z,88.13
2022-12-16T17:21:38.083Z,91.00
2022-12-16T17:24:23.752Z,96.55
2022-12-16T17:27:09.604Z,88.43
2022-12-16T17:29:54.577Z,93.68
2022-12-16T17:32:41.201Z,106.57
2022-12-16T17:35:29.245Z,101.50
2022-12-16T17:38:14.301Z,100.93
2022-12-16T17:41:01.858Z,95.03
2022-12-16T17:43:47.005Z,95.20
2022-12-16T17:46:32.399Z,92.63
2022-12-16T17:49:18.622Z,86.32
2022-12-16T17:52:03.968Z,83.95
2022-12-16T17:54:49.428Z,89.95
2022-12-16T17:57:34.698Z,84.60
2022-12-16T18:00:21.116Z,93.53
2022-12-16T18:03:06.287Z,93.13
2022-12-16T18:05:53.047Z,82.53
2022-12-16T18:08:38.379Z,95.63
2022-12-16T18:11:23.838Z,90.32
2022-12-16T18:14:08.943Z,92.20
2022-12-16T18:16:54.192Z,95.03
2022-12-16T18:19:39.589Z,92.47
2022-12-16T18:22:27.229Z,82.95
2022-12-16T18:25:12.144Z,86.88
2022-12-16T18:27:58.052Z,76.45
2022-12-16T18:30:43.370Z,84.33
2022-12-16T18:33:37.397Z,81.93
2022-12-16T18:36:23.328Z,83.57
2022-12-16T18:39:09.704Z,71.67
2022-12-16T18:42:00.389Z,78.88
2022-12-16T18:44:45.625Z,82.20
2022-12-16T18:47:30.034Z,82.27
2022-12-16T18:50:15.314Z,73.65
2022-12-16T18:53:01.130Z,87.65
2022-12-16T18:55:47.951Z,83.47
2022-12-16T18:58:50.675Z,81.97
2022-12-16T19:01:36.345Z,85.90
2022-12-16T19:04:21.658Z,89.70
2022-12-16T19:07:06.888Z,93.20
2022-12-16T19:09:52.870Z,92.05
2022-12-16T19:12:39.644Z,79.32
2022-12-16T19:15:25.234Z,85.85
2022-12-16T19:18:11.316Z,88.47
2022-12-16T19:21:08.378Z,97.07
2022-12-16T19:23:54.944Z,89.50
2022-12-16T19:26:40.492Z,94.75
2022-12-16T19:29:27.189Z,104.85
2022-12-16T19:32:12.869Z,102.15
2022-12-16T19:34:57.922Z,102.13
2022-12-16T19:37:43.351Z,107.40
2022-12-16T19:40:29.108Z,103.55
2022-12-16T19:43:14.582Z,95.40
2022-12-16T19:46:01.756Z,101.85
2022-12-16T19:48:47.068Z,106.88
2022-12-16T19:51:32.422Z,115.25
2022-12-16T19:54:17.935Z,114.40
2022-12-16T19:57:02.930Z,102.13
2022-12-16T19:59:49.051Z,103.00
2022-12-16T20:02:47.093Z,114.90
2022-12-16T20:05:32.546Z,113.65
2022-12-16T20:08:26.193Z,125.60
2022-12-16T20:11:11.598Z,132.90
2022-12-16T20:13:56.788Z,121.15
2022-12-16T20:16:42.029Z,122.55
2022-12-16T20:19:28.597Z,148.80
2022-12-16T20:22:16.424Z,161.32
2022-12-16T20:25:13.395Z,139.50
2022-12-16T20:27:58.697Z,153.23
2022-12-16T20:30:43.993Z,162.80
2022-12-16T20:33:31.312Z,161.32
2022-12-16T20:36:18.744Z,174.63
2022-12-16T20:39:05.130Z,168.75
2022-12-16T20:41:51.810Z,149.90
2022-12-16T20:44:37.242Z,137.25
2022-12-16T20:47:22.817Z,137.10
2022-12-16T20:50:08.083Z,142.00
2022-12-16T20:52:56.044Z,120.00
2022-12-16T20:55:42.586Z,119.40
2022-12-16T20:58:27.713Z,123.10
2022-12-16T21:01:14.176Z,128.03
2022-12-16T21:03:59.172Z,113.85
2022-12-16T21:06:44.485Z,116.75
2022-12-16T21:09:31.161Z,111.57
2022-12-16T21:12:16.467Z,104.00
2022-12-16T21:15:01.678Z,100.47
2022-12-16T21:17:46.930Z,113.38
2022-12-16T21:20:43.676Z,100.90
2022-12-16T21:23:28.840Z,110.80
2022-12-16T21:26:17.533Z,92.65
2022-12-16T21:29:02.771Z,103.70
2022-12-16T21:31:56.469Z,91.68
2022-12-16T21:34:42.129Z,89.88
2022-12-16T21:37:27.472Z,94.43
2022-12-16T21:40:24.223Z,88.53
2022-12-16T21:43:11.232Z,96.88
2022-12-16T21:45:56.487Z,99.03
2022-12-16T21:48:42.021Z,87.35
2022-12-16T21:51:27.179Z,93.47
2022-12-16T21:54:12.505Z,94.82
2022-12-16T21:56:57.826Z,94.47
2022-12-16T21:59:44.684Z,93.10
2022-12-16T22:02:30.781Z,97.53
2022-12-16T22:05:16.140Z,91.97
2022-12-16T22:08:01.754Z,84.13
2022-12-16T22:10:47.035Z,75.07
2022-12-16T22:13:32.233Z,88.05
2022-12-16T22:16:18.927Z,80.63
2022-12-16T22:19:03.913Z,81.03
2022-12-16T22:21:49.338Z,79.78
2022-12-16T22:24:49.007Z,79.07
2022-12-16T22:27:34.496Z,72.50
2022-12-16T22:30:19.796Z,77.13
2022-12-16T22:33:06.586Z,69.22
2022-12-16T22:35:52.407Z,69.57
2022-12-16T22:38:37.733Z,82.80
2022-12-16T22:41:25.282Z,78.10
2022-12-16T22:44:19.089Z,73.45
2022-12-16T22:47:04.365Z,70.00
2022-12-16T22:49:51.754Z,73.90
2022-12-16T22:52:37.094Z,69.97
2022-12-16T22:55:22.649Z,66.30
2022-12-16T22:58:07.893Z,63.42
2022-12-16T23:00:53.284Z,64.85
2022-12-16T23:03:41.942Z,84.43
2022-12-16T23:06:30.669Z,61.28
2022-12-16T23:09:18.174Z,63.50
2022-12-16T23:12:03.658Z,59.90
2022-12-16T23:14:49.093Z,61.25
2022-12-16T23:17:35.168Z,65.90
2022-12-16T23:20:20.385Z,62.97
2022-12-16T23:23:06.792Z,62.38
2022-12-16T23:25:52.316Z,67.85
2022-12-16T23:28:38.599Z,50.85
2022-12-16T23:31:23.824Z,57.38
2022-12-16T23:34:09.268Z,60.42
2022-12-16T23:36:55.657Z,55.85
2022-12-16T23:39:51.095Z,60.25
2022-12-16T23:42:48.487Z,49.80
2022-12-16T23:45:33.664Z,54.83
2022-12-16T23:48:19.898Z,50.47
2022-12-16T23:51:05.474Z,36.45
2022-12-16T23:53:50.642Z,48.45
2022-12-16T23:56:37.024Z,38.47
2022-12-16T23:59:23.080Z,34.35
